createdAt,value
2023-02-11T00:02:18.804Z,2.02
2023-02-11T00:04:46.598Z,1.84
2023-02-11T00:07:14.406Z,1.93
2023-02-11T00:09:42.825Z,1.99
2023-02-11T00:12:10.589Z,1.96
2023-02-11T00:14:38.346Z,1.81
2023-02-11T00:17:06.115Z,1.75
2023-02-11T00:19:33.877Z,1.89
2023-02-11T00:22:04.412Z,1.97
2023-02-11T00:24:32.182Z,1.83
2023-02-11T00:27:02.141Z,1.97
2023-02-11T00:29:29.912Z,1.95
2023-02-11T00:31:57.900Z,2.04
2023-02-11T00:34:25.732Z,2.04
2023-02-11T00:36:53.558Z,2.07
2023-02-11T00:39:21.338Z,1.81
2023-02-11T00:41:49.105Z,2.07
2023-02-11T00:44:16.870Z,2.09
2023-02-11T00:46:44.715Z,1.81
2023-02-11T00:49:12.573Z,2.06
2023-02-11T00:51:40.379Z,2.11
2023-02-11T00:54:08.154Z,1.87
2023-02-11T00:56:35.954Z,1.86
2023-02-11T00:59:03.790Z,1.88
2023-02-11T01:01:31.633Z,2.00
2023-02-11T01:03:59.449Z,1.84
2023-02-11T01:06:27.299Z,1.81
2023-02-11T01:08:55.058Z,1.93
2023-02-11T01:11:22.846Z,2.19
2023-02-11T01:13:50.683Z,1.95
2023-02-11T01:16:18.604Z,2.07
2023-02-11T01:18:46.456Z,2.03
2023-02-11T01:21:14.247Z,2.06
2023-02-11T01:23:42.052Z,1.92
2023-02-11T01:26:09.792Z,1.93
2023-02-11T01:28:37.735Z,1.98
2023-02-11T01:31:05.550Z,2.16
2023-02-11T01:33:33.386Z,1.98
2023-02-11T01:36:01.178Z,2.07
2023-02-11T01:38:28.942Z,2.04
2023-02-11T01:40:56.758Z,2.13
2023-02-11T01:43:24.590Z,2.09
2023-02-11T01:45:52.728Z,1.98
2023-02-11T01:48:20.676Z,2.09
2023-02-11T01:50:48.489Z,2.15
2023-02-11T01:53:34.898Z,2.07
2023-02-11T01:56:20.941Z,2.23
2023-02-11T01:58:48.715Z,2.23
2023-02-11T02:01:16.504Z,2.11
2023-02-11T02:03:44.398Z,2.16
2023-02-11T02:06:12.293Z,2.19
2023-02-11T02:08:40.048Z,2.37
2023-02-11T02:11:07.969Z,2.19
2023-02-11T02:13:44.297Z,2.27
2023-02-11T02:16:12.101Z,2.18
2023-02-11T02:18:40.042Z,2.37
2023-02-11T02:21:07.834Z,2.19
2023-02-11T02:23:35.629Z,2.22
2023-02-11T02:26:03.457Z,2.14
2023-02-11T02:28:31.271Z,2.29
2023-02-11T02:31:03.052Z,2.20
2023-02-11T02:33:30.922Z,2.34
2023-02-11T02:35:58.777Z,2.10
2023-02-11T02:38:26.541Z,2.30
2023-02-11T02:40:54.326Z,2.41
2023-02-11T02:43:22.098Z,2.44
2023-02-11T02:45:50.213Z,2.37
2023-02-11T02:48:18.199Z,2.38
2023-02-11T02:50:48.855Z,2.28
2023-02-11T02:53:16.628Z,2.26
2023-02-11T02:55:44.563Z,2.40
2023-02-11T02:58:12.310Z,2.41
2023-02-11T03:00:40.118Z,2.35
2023-02-11T03:03:07.950Z,2.27
2023-02-11T03:05:35.710Z,2.29
2023-02-11T03:08:03.444Z,2.33
2023-02-11T03:10:31.224Z,2.44
2023-02-11T03:12:59.005Z,2.37
2023-02-11T03:15:26.781Z,2.41
2023-02-11T03:17:54.579Z,2.30
2023-02-11T03:20:22.370Z,2.41
2023-02-11T03:22:50.218Z,2.36
2023-02-11T03:25:21.192Z,2.34
2023-02-11T03:27:48.992Z,2.41
2023-02-11T03:30:16.746Z,2.25
2023-02-11T03:32:44.518Z,2.43
2023-02-11T03:35:12.283Z,2.36
2023-02-11T03:37:41.192Z,2.37
2023-02-11T03:40:09.581Z,2.33
2023-02-11T03:42:37.326Z,2.25
2023-02-11T03:45:05.518Z,2.37
2023-02-11T03:47:33.364Z,2.48
2023-02-11T03:50:03.644Z,2.40
2023-02-11T03:52:31.503Z,2.29
2023-02-11T03:55:02.349Z,2.26
2023-02-11T03:57:33.064Z,2.15
2023-02-11T04:00:00.956Z,2.46
2023-02-11T04:02:28.867Z,2.51
2023-02-11T04:04:56.701Z,2.59
2023-02-11T04:07:24.453Z,2.62
2023-02-11T04:09:52.689Z,2.47
2023-02-11T04:12:20.457Z,2.58
2023-02-11T04:14:48.283Z,2.62
2023-02-11T04:17:16.132Z,2.32
2023-02-11T04:19:43.902Z,2.52
2023-02-11T04:22:14.263Z,2.45
2023-02-11T04:24:42.127Z,2.37
2023-02-11T04:27:10.047Z,2.55
2023-02-11T04:29:37.907Z,2.68
2023-02-11T04:32:05.813Z,2.46
2023-02-11T04:34:33.614Z,2.58
2023-02-11T04:37:01.432Z,2.51
2023-02-11T04:39:29.299Z,2.39
2023-02-11T04:41:59.410Z,2.60
2023-02-11T04:44:27.229Z,2.64
2023-02-11T04:46:55.500Z,2.81
2023-02-11T04:49:23.252Z,2.90
2023-02-11T04:51:51.197Z,2.60
2023-02-11T04:54:19.024Z,2.66
2023-02-11T04:56:46.815Z,2.80
2023-02-11T04:59:14.718Z,2.76
2023-02-11T05:01:42.599Z,2.69
2023-02-11T05:04:12.204Z,2.68
2023-02-11T05:06:40.525Z,2.47
2023-02-11T05:09:11.507Z,2.71
2023-02-11T05:11:40.400Z,2.81
2023-02-11T05:14:08.178Z,2.78
2023-02-11T05:16:36.114Z,2.72
2023-02-11T05:19:03.897Z,2.69
2023-02-11T05:21:31.822Z,2.83
2023-02-11T05:23:59.686Z,2.80
2023-02-11T05:26:27.868Z,2.84
2023-02-11T05:28:55.747Z,2.82
2023-02-11T05:31:23.566Z,2.68
2023-02-11T05:33:51.333Z,2.74
2023-02-11T05:36:19.213Z,2.71
2023-02-11T05:38:46.964Z,2.55
2023-02-11T05:41:14.794Z,2.79
2023-02-11T05:43:42.647Z,2.76
2023-02-11T05:46:10.522Z,2.89
2023-02-11T05:48:43.390Z,3.31
2023-02-11T05:51:13.721Z,3.25
2023-02-11T05:53:41.798Z,3.31
2023-02-11T05:56:09.746Z,3.24
2023-02-11T05:58:40.748Z,2.98
2023-02-11T06:01:11.736Z,3.01
2023-02-11T06:03:43.133Z,3.23
2023-02-11T06:06:11.106Z,3.11
2023-02-11T06:08:39.356Z,3.15
2023-02-11T06:13:48.136Z,3.07
2023-02-11T06:16:15.979Z,3.00
2023-02-11T06:18:43.771Z,2.81
2023-02-11T06:21:11.627Z,2.85
2023-02-11T06:23:39.539Z,3.03
2023-02-11T06:26:07.329Z,2.91
2023-02-11T06:28:36.877Z,2.88
2023-02-11T06:31:05.423Z,3.12
2023-02-11T06:33:33.260Z,2.86
2023-02-11T06:36:01.010Z,2.90
2023-02-11T06:38:28.801Z,2.76
2023-02-11T06:40:56.622Z,2.97
2023-02-11T06:43:24.423Z,2.96
2023-02-11T06:45:52.347Z,2.91
2023-02-11T06:48:20.163Z,2.90
2023-02-11T06:50:47.999Z,2.68
2023-02-11T06:53:15.829Z,2.91
2023-02-11T06:55:43.686Z,2.75
2023-02-11T06:58:11.474Z,2.63
2023-02-11T07:00:39.264Z,2.73
2023-02-11T07:03:07.173Z,2.64
2023-02-11T07:05:39.634Z,2.56
2023-02-11T07:08:07.472Z,2.63
2023-02-11T07:10:35.253Z,2.55
2023-02-11T07:13:03.049Z,2.78
2023-02-11T07:15:36.998Z,2.65
2023-02-11T07:18:05.183Z,2.66
2023-02-11T07:20:33.015Z,2.78
2023-02-11T07:23:03.580Z,2.63
2023-02-11T07:25:32.043Z,2.59
2023-02-11T07:27:59.908Z,2.52
2023-02-11T07:30:27.692Z,2.69
2023-02-11T07:32:55.701Z,2.74
2023-02-11T07:35:23.454Z,2.64
2023-02-11T07:37:51.260Z,2.78
2023-02-11T07:40:20.218Z,2.76
2023-02-11T07:42:48.048Z,2.83
2023-02-11T07:45:16.003Z,2.72
2023-02-11T07:47:43.894Z,2.64
2023-02-11T07:50:11.705Z,2.94
2023-02-11T07:52:39.847Z,2.81
2023-02-11T07:55:07.655Z,2.85
2023-02-11T07:57:35.444Z,2.99
2023-02-11T08:00:03.321Z,2.87
2023-02-11T08:02:31.167Z,2.85
2023-02-11T08:04:59.260Z,2.87
2023-02-11T08:07:27.132Z,2.88
2023-02-11T08:09:56.558Z,2.73
2023-02-11T08:12:24.395Z,2.83
2023-02-11T08:14:52.489Z,3.04
2023-02-11T08:17:20.261Z,2.95
2023-02-11T08:19:48.022Z,2.58
2023-02-11T08:22:15.846Z,2.92
2023-02-11T08:24:43.708Z,2.74
2023-02-11T08:27:11.478Z,2.60
2023-02-11T08:29:39.264Z,2.79
2023-02-11T08:32:09.924Z,3.01
2023-02-11T08:34:42.344Z,2.85
2023-02-11T08:37:10.185Z,2.66
2023-02-11T08:39:37.914Z,2.79
2023-02-11T08:42:05.685Z,2.91
2023-02-11T08:44:36.646Z,2.92
2023-02-11T08:47:04.399Z,2.80
2023-02-11T08:49:33.264Z,2.66
2023-02-11T08:52:04.797Z,2.77
2023-02-11T08:54:32.645Z,2.84
2023-02-11T08:57:01.181Z,2.82
2023-02-11T08:59:29.095Z,2.74
2023-02-11T09:01:57.349Z,2.81
2023-02-11T09:04:25.161Z,2.87
2023-02-11T09:06:55.886Z,2.86
2023-02-11T09:09:23.895Z,2.90
2023-02-11T09:11:51.657Z,2.91
2023-02-11T09:14:22.533Z,2.98
2023-02-11T09:16:50.497Z,3.07
2023-02-11T09:19:18.285Z,3.17
2023-02-11T09:21:46.075Z,2.92
2023-02-11T09:24:13.895Z,3.27
2023-02-11T09:26:41.630Z,3.05
2023-02-11T09:29:09.527Z,2.98
2023-02-11T09:31:37.404Z,3.00
2023-02-11T09:34:05.398Z,3.03
2023-02-11T09:36:36.103Z,3.06
2023-02-11T09:39:06.931Z,2.95
2023-02-11T09:41:35.232Z,2.86
2023-02-11T09:44:11.536Z,3.08
2023-02-11T09:46:42.071Z,2.97
2023-02-11T09:49:09.942Z,2.97
2023-02-11T09:51:37.844Z,3.01
2023-02-11T09:54:05.801Z,3.02
2023-02-11T09:56:34.592Z,2.91
2023-02-11T09:59:05.186Z,2.98
2023-02-11T10:01:33.141Z,2.96
2023-02-11T10:04:04.113Z,2.83
2023-02-11T10:06:32.080Z,2.78
2023-02-11T10:08:59.847Z,3.21
2023-02-11T10:11:31.991Z,2.78
2023-02-11T10:14:00.174Z,3.14
2023-02-11T10:16:28.055Z,2.97
2023-02-11T10:18:56.000Z,2.98
2023-02-11T10:21:23.751Z,3.12
2023-02-11T10:23:56.192Z,2.86
2023-02-11T10:26:26.785Z,2.98
2023-02-11T10:28:57.638Z,2.97
2023-02-11T10:31:25.815Z,3.01
2023-02-11T10:33:53.717Z,2.96
2023-02-11T10:36:21.549Z,3.02
2023-02-11T10:38:49.337Z,2.84
2023-02-11T10:41:17.094Z,3.00
2023-02-11T10:43:44.934Z,2.84
2023-02-11T10:46:12.862Z,2.94
2023-02-11T10:48:40.823Z,2.87
2023-02-11T10:51:11.751Z,2.81
2023-02-11T10:53:40.693Z,3.10
2023-02-11T10:56:08.475Z,2.94
2023-02-11T10:58:36.261Z,2.95
2023-02-11T11:01:12.930Z,2.77
2023-02-11T11:03:46.836Z,2.87
2023-02-11T11:06:14.631Z,3.04
2023-02-11T11:08:42.449Z,3.02
2023-02-11T11:11:10.484Z,2.88
2023-02-11T11:13:38.308Z,2.80
2023-02-11T11:16:06.292Z,2.88
2023-02-11T11:18:34.063Z,2.72
2023-02-11T11:21:01.886Z,2.82
2023-02-11T11:23:29.700Z,2.78
2023-02-11T11:25:57.564Z,2.86
2023-02-11T11:28:27.997Z,2.89
2023-02-11T11:30:56.020Z,2.73
2023-02-11T11:33:25.521Z,2.96
2023-02-11T11:35:53.334Z,2.67
2023-02-11T11:38:21.078Z,2.67
2023-02-11T11:40:49.159Z,2.83
2023-02-11T11:43:17.185Z,2.68
2023-02-11T11:45:44.951Z,2.89
2023-02-11T11:48:12.763Z,2.85
2023-02-11T11:50:40.542Z,2.63
2023-02-11T11:53:08.500Z,2.85
2023-02-11T11:55:36.251Z,2.50
2023-02-11T11:58:04.098Z,2.40
2023-02-11T12:00:31.834Z,2.39
2023-02-11T12:02:59.607Z,2.70
2023-02-11T12:05:27.816Z,2.69
2023-02-11T12:07:58.450Z,2.57
2023-02-11T12:10:28.789Z,2.65
2023-02-11T12:12:56.565Z,2.52
2023-02-11T12:15:24.309Z,2.68
2023-02-11T12:17:52.125Z,2.67
2023-02-11T12:20:20.023Z,2.68
2023-02-11T12:22:47.767Z,2.68
2023-02-11T12:25:15.743Z,2.60
2023-02-11T12:27:43.506Z,2.38
2023-02-11T12:30:11.303Z,2.48
2023-02-11T12:32:39.112Z,2.56
2023-02-11T12:35:06.910Z,2.71
2023-02-11T12:37:34.638Z,2.62
2023-02-11T12:40:02.482Z,2.76
2023-02-11T12:42:48.412Z,2.56
2023-02-11T12:45:19.970Z,2.55
2023-02-11T12:47:47.735Z,2.45
2023-02-11T12:50:15.559Z,2.42
2023-02-11T12:52:46.421Z,2.65
2023-02-11T12:55:14.202Z,2.65
2023-02-11T12:57:41.959Z,2.60
2023-02-11T13:00:12.331Z,2.68
2023-02-11T13:02:40.126Z,2.53
2023-02-11T13:05:08.380Z,2.71
2023-02-11T13:07:36.258Z,2.40
2023-02-11T13:10:04.168Z,2.55
2023-02-11T13:12:50.575Z,2.63
2023-02-11T13:15:18.426Z,2.54
2023-02-11T13:17:46.215Z,2.34
2023-02-11T13:20:16.996Z,2.57
2023-02-11T13:22:44.785Z,2.44
2023-02-11T13:25:12.498Z,2.39
2023-02-11T13:27:40.602Z,2.57
2023-02-11T13:30:12.339Z,2.36
2023-02-11T13:32:40.083Z,2.46
2023-02-11T13:35:07.843Z,2.44
2023-02-11T13:37:35.651Z,2.67
2023-02-11T13:40:03.406Z,2.46
2023-02-11T13:42:34.183Z,2.64
2023-02-11T13:45:01.960Z,2.51
2023-02-11T13:47:31.211Z,2.52
2023-02-11T13:49:59.018Z,2.46
2023-02-11T13:52:26.901Z,2.60
2023-02-11T13:54:54.751Z,2.63
2023-02-11T13:57:22.606Z,2.45
2023-02-11T13:59:50.393Z,2.51
2023-02-11T14:02:36.653Z,2.40
2023-02-11T14:05:23.198Z,2.37
2023-02-11T14:08:09.201Z,2.49
2023-02-11T14:10:36.962Z,2.38
2023-02-11T14:13:04.695Z,2.31
2023-02-11T14:15:32.634Z,2.47
2023-02-11T14:18:00.396Z,2.56
2023-02-11T14:20:28.139Z,2.49
2023-02-11T14:22:55.970Z,2.47
2023-02-11T14:25:23.745Z,2.43
2023-02-11T14:27:52.375Z,2.45
2023-02-11T14:30:20.455Z,2.44
2023-02-11T14:32:49.209Z,2.42
2023-02-11T14:35:17.001Z,2.50
2023-02-11T14:37:50.671Z,2.52
2023-02-11T14:40:18.901Z,2.34
2023-02-11T14:42:46.671Z,2.25
2023-02-11T14:45:14.541Z,2.30
2023-02-11T14:47:42.383Z,2.37
2023-02-11T14:50:10.139Z,2.50
2023-02-11T14:52:37.893Z,2.43
2023-02-11T14:55:05.619Z,2.43
2023-02-11T14:57:34.429Z,2.30
2023-02-11T15:00:05.292Z,2.42
2023-02-11T15:02:33.190Z,2.45
2023-02-11T15:05:00.962Z,2.34
2023-02-11T15:07:29.175Z,2.40
2023-02-11T15:09:57.014Z,2.34
2023-02-11T15:12:26.121Z,2.31
2023-02-11T15:14:54.011Z,2.37
2023-02-11T15:17:21.865Z,2.46
2023-02-11T15:19:49.682Z,2.17
2023-02-11T15:22:19.460Z,2.23
2023-02-11T15:24:47.650Z,2.35
2023-02-11T15:27:19.578Z,2.33
2023-02-11T15:29:47.496Z,2.43
2023-02-11T15:32:15.976Z,2.32
2023-02-11T15:34:43.955Z,2.40
2023-02-11T15:37:11.741Z,2.41
2023-02-11T15:39:39.664Z,2.40
2023-02-11T15:42:07.598Z,2.52
2023-02-11T15:44:35.542Z,2.53
2023-02-11T15:47:03.417Z,2.35
2023-02-11T15:49:31.330Z,2.35
2023-02-11T15:51:59.187Z,2.54
2023-02-11T15:54:27.746Z,2.27
2023-02-11T15:57:01.739Z,2.24
2023-02-11T15:59:31.500Z,2.44
2023-02-11T16:01:59.304Z,2.49
2023-02-11T16:04:27.204Z,2.45
2023-02-11T16:06:54.933Z,2.56
2023-02-11T16:09:22.682Z,2.48
2023-02-11T16:11:50.423Z,2.45
2023-02-11T16:14:18.194Z,2.58
2023-02-11T16:16:45.972Z,2.25
2023-02-11T16:19:13.733Z,2.23
2023-02-11T16:21:41.798Z,2.51
2023-02-11T16:24:09.645Z,2.44
2023-02-11T16:26:37.426Z,2.45
2023-02-11T16:29:08.233Z,2.23
2023-02-11T16:31:36.059Z,2.52
2023-02-11T16:34:03.910Z,2.48
2023-02-11T16:36:31.641Z,2.33
2023-02-11T16:38:59.438Z,2.29
2023-02-11T16:41:27.307Z,2.41
2023-02-11T16:43:55.048Z,2.50
2023-02-11T16:46:22.832Z,2.38
2023-02-11T16:48:50.648Z,2.51
2023-02-11T16:51:18.385Z,2.31
2023-02-11T16:53:46.138Z,2.52
2023-02-11T16:56:13.957Z,2.45
2023-02-11T16:58:41.717Z,2.47
2023-02-11T17:01:10.584Z,2.39
2023-02-11T17:03:41.410Z,2.35
2023-02-11T17:06:09.213Z,2.42
2023-02-11T17:08:36.977Z,2.29
2023-02-11T17:11:04.752Z,2.44
2023-02-11T17:13:32.518Z,2.60
2023-02-11T17:16:00.356Z,2.51
2023-02-11T17:18:28.201Z,2.41
2023-02-11T17:20:55.935Z,2.59
2023-02-11T17:23:23.914Z,2.44
2023-02-11T17:25:51.960Z,2.36
2023-02-11T17:28:19.910Z,2.53
2023-02-11T17:30:47.709Z,2.47
2023-02-11T17:33:15.485Z,2.48
2023-02-11T17:35:43.266Z,2.39
2023-02-11T17:38:11.040Z,2.32
2023-02-11T17:40:38.800Z,2.48
2023-02-11T17:43:06.548Z,2.49
2023-02-11T17:45:34.330Z,2.24
2023-02-11T17:48:02.147Z,2.64
2023-02-11T17:50:29.937Z,2.42
2023-02-11T17:52:57.704Z,2.38
2023-02-11T17:55:25.568Z,2.69
2023-02-11T17:57:53.304Z,2.40
2023-02-11T18:00:21.062Z,2.58
2023-02-11T18:02:48.881Z,2.54
2023-02-11T18:05:16.720Z,2.32
2023-02-11T18:07:44.529Z,2.50
2023-02-11T18:10:12.358Z,2.61
2023-02-11T18:12:40.116Z,2.72
2023-02-11T18:15:07.898Z,2.67
2023-02-11T18:17:35.792Z,2.58
2023-02-11T18:20:04.632Z,2.40
2023-02-11T18:22:37.629Z,2.53
2023-02-11T18:25:05.721Z,2.58
2023-02-11T18:27:33.688Z,2.68
2023-02-11T18:30:01.571Z,2.55
2023-02-11T18:32:29.372Z,2.39
2023-02-11T18:34:57.168Z,2.33
2023-02-11T18:37:25.057Z,2.50
2023-02-11T18:39:52.811Z,2.55
2023-02-11T18:42:20.537Z,2.59
2023-02-11T18:44:48.343Z,2.31
2023-02-11T18:47:16.067Z,2.44
2023-02-11T18:49:43.849Z,2.40
2023-02-11T18:52:11.636Z,2.34
2023-02-11T18:54:39.383Z,2.33
2023-02-11T18:57:07.157Z,2.50
2023-02-11T18:59:34.937Z,2.30
2023-02-11T19:02:02.675Z,2.41
2023-02-11T19:04:30.458Z,2.39
2023-02-11T19:06:58.304Z,2.48
2023-02-11T19:09:26.031Z,2.57
2023-02-11T19:11:55.196Z,2.41
2023-02-11T19:14:23.038Z,2.14
2023-02-11T19:16:51.629Z,2.65
2023-02-11T19:19:19.448Z,2.49
2023-02-11T19:21:47.256Z,2.52
2023-02-11T19:24:16.511Z,2.52
2023-02-11T19:26:44.232Z,2.42
2023-02-11T19:29:12.042Z,2.50
2023-02-11T19:31:40.010Z,2.26
2023-02-11T19:34:08.514Z,2.47
2023-02-11T19:36:36.300Z,2.37
2023-02-11T19:39:04.073Z,2.37
2023-02-11T19:41:31.858Z,2.47
2023-02-11T19:43:59.635Z,2.34
2023-02-11T19:46:27.452Z,2.39
2023-02-11T19:48:55.362Z,2.49
2023-02-11T19:51:23.090Z,2.36
2023-02-11T19:53:51.974Z,2.35
2023-02-11T19:56:20.897Z,2.29
2023-02-11T19:58:48.810Z,2.46
2023-02-11T20:01:16.597Z,2.50
2023-02-11T20:03:44.424Z,2.48
2023-02-11T20:06:12.213Z,2.34
2023-02-11T20:08:39.927Z,2.40
2023-02-11T20:11:07.688Z,2.42
2023-02-11T20:13:35.907Z,2.41
2023-02-11T20:16:03.644Z,2.10
2023-02-11T20:18:31.426Z,2.22
2023-02-11T20:21:02.637Z,2.23
2023-02-11T20:23:30.412Z,2.24
2023-02-11T20:25:58.215Z,2.43
2023-02-11T20:28:26.307Z,2.19
2023-02-11T20:30:54.162Z,2.29
2023-02-11T20:33:21.936Z,2.47
2023-02-11T20:35:49.816Z,2.29
2023-02-11T20:38:17.677Z,2.18
2023-02-11T20:40:45.426Z,2.23
2023-02-11T20:43:13.189Z,2.48
2023-02-11T20:45:40.984Z,2.21
2023-02-11T20:48:08.755Z,2.40
2023-02-11T20:50:36.559Z,2.27
2023-02-11T20:53:04.280Z,2.25
2023-02-11T20:55:32.195Z,2.36
2023-02-11T20:57:59.954Z,2.22
2023-02-11T21:00:27.743Z,2.19
2023-02-11T21:02:55.554Z,2.24
2023-02-11T21:05:23.315Z,2.32
2023-02-11T21:07:51.043Z,2.13
2023-02-11T21:10:19.039Z,2.03
2023-02-11T21:12:49.545Z,2.24
2023-02-11T21:15:17.843Z,2.33
2023-02-11T21:17:45.580Z,2.36
2023-02-11T21:20:13.429Z,2.37
2023-02-11T21:22:41.157Z,2.30
2023-02-11T21:25:09.519Z,2.11
2023-02-11T21:27:37.261Z,2.29
2023-02-11T21:30:05.011Z,2.28
2023-02-11T21:32:32.739Z,2.10
2023-02-11T21:35:02.292Z,2.43
2023-02-11T21:37:30.265Z,2.45
2023-02-11T21:39:58.048Z,2.34
2023-02-11T21:42:25.812Z,2.19
2023-02-11T21:44:53.614Z,2.34
2023-02-11T21:47:21.386Z,2.36
2023-02-11T21:49:49.194Z,2.18
2023-02-11T21:52:17.010Z,2.19
2023-02-11T21:54:44.788Z,2.05
2023-02-11T21:57:12.558Z,2.20
2023-02-11T21:59:40.306Z,2.24
2023-02-11T22:02:08.023Z,2.14
2023-02-11T22:04:35.881Z,2.11
2023-02-11T22:07:04.204Z,2.12
2023-02-11T22:09:31.926Z,2.21
2023-02-11T22:11:59.674Z,2.08
2023-02-11T22:14:27.417Z,1.98
2023-02-11T22:16:55.199Z,2.07
2023-02-11T22:19:24.602Z,2.03
2023-02-11T22:21:52.452Z,2.08
2023-02-11T22:24:20.206Z,2.08
2023-02-11T22:26:47.976Z,2.07
2023-02-11T22:29:15.922Z,2.11
2023-02-11T22:31:43.777Z,2.03
2023-02-11T22:34:11.673Z,2.01
2023-02-11T22:36:39.420Z,1.89
2023-02-11T22:39:07.181Z,1.91
2023-02-11T22:41:34.928Z,1.92
2023-02-11T22:44:02.695Z,1.99
2023-02-11T22:46:30.495Z,1.92
2023-02-11T22:48:58.276Z,2.08
2023-02-11T22:51:26.039Z,2.07
2023-02-11T22:53:53.836Z,1.98
2023-02-11T22:56:21.643Z,1.74
2023-02-11T22:58:49.443Z,2.01
2023-02-11T23:01:17.225Z,2.06
2023-02-11T23:03:44.996Z,1.92
2023-02-11T23:06:12.796Z,2.00
2023-02-11T23:08:40.586Z,2.25
2023-02-11T23:11:08.485Z,1.90
2023-02-11T23:13:36.219Z,2.11
2023-02-11T23:16:04.106Z,2.05
2023-02-11T23:18:31.958Z,1.87
2023-02-11T23:20:59.673Z,2.09
2023-02-11T23:23:27.375Z,1.94
2023-02-11T23:25:55.474Z,1.94
2023-02-11T23:28:23.474Z,1.99
2023-02-11T23:30:51.283Z,2.05
2023-02-11T23:33:19.139Z,1.78
2023-02-11T23:35:46.874Z,1.99
2023-02-11T23:38:14.666Z,1.77
2023-02-11T23:40:42.385Z,1.90
2023-02-11T23:43:10.170Z,1.86
2023-02-11T23:45:38.027Z,1.78
2023-02-11T23:48:05.906Z,1.80
2023-02-11T23:50:33.814Z,1.81
2023-02-11T23:53:01.551Z,1.98
2023-02-11T23:55:29.370Z,1.87
2023-02-11T23:57:57.144Z,1.87
